Caudecoste

FR-0644 · Lot-et-Garonne, Nouvelle-Aquitaine, France

METAR history FR-0644 · Caudecoste

Below you see METARs of the last few days. Select a year to browse through older METARs, from the year 2007 onwards.

June 18, 2024

Time Code Weather Temp. Visibility Ceiling Wind METAR/SPECI
17:00
V
28 °C 10 km+ - 100° 100° 7 kt METAR LFBA 181500Z AUTO 10007KT 070V140 CAVOK 28/17 Q1010 BECMG SCT040 FEW060CB BKN120
16:30
V
28 °C 10 km+ - 090° 090° 5 kt METAR LFBA 181430Z AUTO 09005KT 040V140 CAVOK 28/17 Q1010 BECMG 32010KT SCT040 FEW060CB
16:00
V
26 °C 10 km+ - 050° 050° 4 kt METAR LFBA 181400Z AUTO 05004KT 010V100 9999 ///TCU 26/17 Q1011 BECMG SCT035 SCT130
15:30
V
26 °C 10 km+ - 110° 110° 4 kt METAR LFBA 181330Z AUTO 11004KT 070V150 CAVOK 26/18 Q1011 NOSIG
15:00
V
25 °C 10 km+ - 090° 090° 5 kt METAR LFBA 181300Z AUTO 09005KT 050V120 9999 ///TCU 25/17 Q1011 BECMG SCT035 SCT130
14:30
V
25 °C 10 km+ - 120° 120° 6 kt METAR LFBA 181230Z AUTO 12006KT 080V170 9999 FEW033 25/17 Q1011 NOSIG
14:00
V
25 °C 10 km+ - 120° 120° 8 kt METAR LFBA 181200Z AUTO 12008KT 090V160 9999 ///CB 25/17 Q1011 BECMG SCT035 SCT130
13:30
V
24 °C 10 km+ - 120° 120° 9 kt METAR LFBA 181130Z AUTO 12009KT 100V160 9999 FEW031/// ///TCU 24/17 Q1011 BECMG SCT020
13:00
M
25 °C 10 km+ 2,900 ft 160° 160° 7 kt METAR LFBA 181100Z AUTO 16007KT 120V200 9999 BKN029/// ///TCU 25/17 Q1012 BECMG SCT020
12:30
V
25 °C 10 km+ - 140° 140° 9 kt METAR LFBA 181030Z AUTO 14009KT 100V190 9999 SCT027 25/18 Q1012 NOSIG
12:00
M
24 °C 10 km+ 2,400 ft 150° 150° 8 kt METAR LFBA 181000Z AUTO 15008KT 110V190 9999 BKN024 24/17 Q1012 NOSIG
11:30
M
24 °C 10 km+ 2,200 ft 130° 130° 10 kt METAR LFBA 180930Z AUTO 13010KT 100V170 9999 BKN022 BKN028 24/18 Q1012 NOSIG
11:00
M
22 °C 10 km+ 2,700 ft 140° 140° 7 kt METAR LFBA 180900Z AUTO 14007KT 120V190 9999 SCT019 OVC027 22/17 Q1012 NOSIG
10:30
M
22 °C 10 km+ 1,600 ft 150° 150° 7 kt METAR LFBA 180830Z AUTO 15007KT 120V190 9999 BKN016 OVC023 22/18 Q1012 NOSIG
10:00
M
21 °C 10 km+ 1,700 ft 130° 130° 6 kt METAR LFBA 180800Z AUTO 13006KT 100V160 9999 BKN017 OVC022 21/18 Q1012 NOSIG
09:30
M
21 °C 10 km+ 1,500 ft 170° 170° 4 kt METAR LFBA 180730Z AUTO 17004KT 120V220 9999 OVC015/// ///TCU 21/17 Q1012 BECMG NSC
09:00
M
20 °C 10 km+ 1,600 ft 140° 140° 6 kt METAR LFBA 180700Z AUTO 14006KT 9999 BKN016 OVC024 20/17 Q1012 NOSIG
08:30
M
20 °C 10 km+ 2,500 ft 110° 110° 6 kt METAR LFBA 180630Z AUTO 11006KT 9999 SCT020 BKN025 20/17 Q1011 NOSIG
08:00
M
20 °C 10 km+ 2,000 ft 120° 120° 6 kt METAR LFBA 180600Z AUTO 12006KT 9999 BKN020 BKN025 20/17 Q1011 NOSIG
07:30
V
19 °C 10 km+ - 120° 120° 6 kt METAR LFBA 180530Z AUTO 12006KT CAVOK 19/16 Q1011 NOSIG
07:00
M
19 °C 10 km+ 1,600 ft 120° 120° 8 kt METAR LFBA 180500Z AUTO 12008KT 9999 BKN016 19/16 Q1011 NOSIG
06:30
M
19 °C 10 km+ 1,700 ft 100° 100° 7 kt METAR LFBA 180430Z AUTO 10007KT 9999 OVC017 19/16 Q1010 NOSIG
06:00
M
19 °C 10 km+ 1,700 ft 130° 130° 4 kt METAR LFBA 180400Z AUTO 13004KT 9999 BKN017 19/16 Q1011 NOSIG
05:30
V
19 °C 10 km+ - 160° 160° 4 kt METAR LFBA 180330Z AUTO 16004KT 100V220 CAVOK 19/16 Q1010 NOSIG
05:00
V
20 °C 10 km+ - 160° 160° 4 kt METAR LFBA 180300Z AUTO 16004KT 120V220 CAVOK 20/17 Q1010
04:30
V
20 °C 10 km+ - 150° 150° 6 kt METAR LFBA 180230Z AUTO 15006KT 110V180 9999 FEW019 20/17 Q1010
04:00
V
20 °C 10 km+ - 150° 150° 4 kt METAR LFBA 180200Z AUTO 15004KT 110V210 9999 SCT019 20/17 Q1009
03:30
V
20 °C 10 km+ - 120° 120° 11 kt METAR LFBA 180130Z AUTO 12011KT 9999 FEW019 20/17 Q1008
03:00
M
20 °C 10 km+ 1,900 ft 100° 100° 10 kt METAR LFBA 180100Z AUTO 10010KT 9999 BKN019 20/17 Q1009
02:30
M
20 °C 10 km+ 1,900 ft 110° 110° 10 kt METAR LFBA 180030Z AUTO 11010KT 9999 OVC019 20/17 Q1009
02:00
M
20 °C 10 km+ 1,900 ft 100° 100° 6 kt METAR LFBA 180000Z AUTO 10006KT 9999 OVC019 20/17 Q1009
01:30
M
21 °C 10 km+ 2,000 ft 110° 110° 9 kt METAR LFBA 172330Z AUTO 11009KT 080V140 9999 BKN020 BKN150 21/18 Q1009
01:00
V
21 °C 10 km+ - 120° 120° 10 kt METAR LFBA 172300Z AUTO 12010KT CAVOK 21/17 Q1009
00:30
V
21 °C 10 km+ - 120° 120° 10 kt METAR LFBA 172230Z AUTO 12010KT CAVOK 21/17 Q1010
00:00
V
21 °C 10 km+ - 130° 130° 11 kt METAR LFBA 172200Z AUTO 13011KT CAVOK 21/17 Q1010

June 17, 2024

Time Code Weather Temp. Visibility Ceiling Wind METAR/SPECI
23:30
V
22 °C 10 km+ - 130° 130° 10 kt METAR LFBA 172130Z AUTO 13010KT CAVOK 22/17 Q1010
23:00
V
22 °C 10 km+ - 130° 130° 10 kt METAR LFBA 172100Z AUTO 13010KT CAVOK 22/17 Q1010
22:30
V
23 °C 10 km+ - 130° 130° 11 kt METAR LFBA 172030Z AUTO 13011KT CAVOK 23/17 Q1010
22:00
V
24 °C 10 km+ - 130° 130° 12 kt METAR LFBA 172000Z AUTO 13012KT CAVOK 24/17 Q1009 NOSIG
21:30
V
25 °C 10 km+ - 140° 140° 10 kt METAR LFBA 171930Z AUTO 14010KT CAVOK 25/17 Q1009 NOSIG
21:00
V
26 °C 10 km+ - 140° 140° 10 kt METAR LFBA 171900Z AUTO 14010KT CAVOK 26/17 Q1009 NOSIG
20:30
V
27 °C 10 km+ - 140° 140° 9 kt METAR LFBA 171830Z AUTO 14009KT CAVOK 27/17 Q1009 NOSIG
20:00
V
27 °C 10 km+ - 100° 100° 6 kt METAR LFBA 171800Z AUTO 10006KT CAVOK 27/16 Q1009 NOSIG
19:30
V
29 °C 10 km+ - 100° 100° 8 kt METAR LFBA 171730Z AUTO 10008KT CAVOK 29/16 Q1009 NOSIG
19:00
V
29 °C 10 km+ - 100° 100° 9 kt METAR LFBA 171700Z AUTO 10009KT 070V140 CAVOK 29/15 Q1009 NOSIG
18:30
V
29 °C 10 km+ - 110° 110° 9 kt METAR LFBA 171630Z AUTO 11009KT CAVOK 29/17 Q1009 NOSIG
18:00
V
29 °C 10 km+ - 110° 110° 8 kt METAR LFBA 171600Z AUTO 11008KT 070V130 CAVOK 29/17 Q1010 NOSIG
17:30
V
29 °C 10 km+ - 120° 120° 8 kt METAR LFBA 171530Z AUTO 12008KT 090V170 CAVOK 29/17 Q1010 NOSIG
17:00
V
29 °C 10 km+ - 110° 110° 9 kt METAR LFBA 171500Z AUTO 11009KT 070V130 CAVOK 29/17 Q1010 NOSIG
16:30
V
29 °C 10 km+ - 110° 110° 9 kt METAR LFBA 171430Z AUTO 11009KT 070V150 CAVOK 29/17 Q1010 NOSIG
16:00
V
29 °C 10 km+ - 110° 110° 7 kt METAR LFBA 171400Z AUTO 11007KT 060V180 CAVOK 29/16 Q1010 NOSIG
15:30
V
28 °C 10 km+ - 110° 110° 8 kt METAR LFBA 171330Z AUTO 11008KT 060V160 CAVOK 28/18 Q1010 NOSIG
15:00
V
28 °C 10 km+ - 100° 100° 8 kt METAR LFBA 171300Z AUTO 10008KT 060V150 CAVOK 28/17 Q1011 NOSIG
14:30
V
27 °C 10 km+ - 120° 120° 7 kt METAR LFBA 171230Z AUTO 12007KT 090V180 CAVOK 27/17 Q1011 NOSIG
14:00
V
27 °C 10 km+ - 100° 100° 6 kt METAR LFBA 171200Z AUTO 10006KT 050V140 CAVOK 27/18 Q1011 NOSIG
13:30
V
26 °C 10 km+ - 080° 080° 9 kt METAR LFBA 171130Z AUTO 08009KT 060V120 CAVOK 26/17 Q1011 NOSIG
13:00
V
26 °C 10 km+ - 120° 120° 7 kt METAR LFBA 171100Z AUTO 12007KT 080V150 CAVOK 26/17 Q1012 NOSIG
12:30
V
25 °C 10 km+ - 110° 110° 9 kt METAR LFBA 171030Z AUTO 11009KT 080V150 CAVOK 25/17 Q1012 NOSIG
12:00
V
24 °C 10 km+ - 110° 110° 9 kt METAR LFBA 171000Z AUTO 11009KT 060V160 CAVOK 24/16 Q1012 NOSIG
11:30
V
24 °C 10 km+ - 120° 120° 9 kt METAR LFBA 170930Z AUTO 12009KT 090V150 CAVOK 24/16 Q1012 NOSIG
11:00
V
24 °C 10 km+ - 100° 100° 7 kt METAR LFBA 170900Z AUTO 10007KT 060V130 CAVOK 24/16 Q1012 NOSIG
10:30
V
23 °C 10 km+ - 100° 100° 8 kt METAR LFBA 170830Z AUTO 10008KT 070V130 CAVOK 23/16 Q1012 NOSIG
10:00
V
22 °C 10 km+ - 110° 110° 5 kt METAR LFBA 170800Z AUTO 11005KT 070V140 CAVOK 22/16 Q1012 NOSIG
09:30
V
21 °C 10 km+ - Var Var 2 kt METAR LFBA 170730Z AUTO VRB02KT CAVOK 21/15 Q1012 NOSIG
09:00
V
20 °C 10 km+ - Var Var 2 kt METAR LFBA 170700Z AUTO VRB02KT CAVOK 20/15 Q1012 NOSIG
08:30
V
20 °C 10 km+ - 050° 050° 5 kt METAR LFBA 170630Z AUTO 05005KT 020V090 CAVOK 20/15 Q1012 NOSIG
08:00
V
18 °C 10 km+ - Var Var 2 kt METAR LFBA 170600Z AUTO VRB02KT CAVOK 18/15 Q1012 NOSIG
07:30
V
17 °C 10 km+ - 040° 040° 3 kt METAR LFBA 170530Z AUTO 04003KT 360V080 CAVOK 17/14 Q1012 NOSIG
07:00
V
16 °C 10 km+ - Var Var 3 kt METAR LFBA 170500Z AUTO VRB03KT CAVOK 16/14 Q1012 NOSIG
06:30
V
16 °C 10 km+ - 360° 360° 0 kt METAR LFBA 170430Z AUTO 00000KT CAVOK 16/14 Q1012 NOSIG
06:00
V
17 °C 10 km+ - Var Var 3 kt METAR LFBA 170400Z AUTO VRB03KT 9999 //////TCU 17/14 Q1012 BECMG NSC
05:30
V
17 °C 10 km+ - Var Var 3 kt METAR LFBA 170330Z AUTO VRB03KT 9999 //////TCU 17/14 Q1012 BECMG NSC
05:00
V
17 °C 10 km+ - 310° 310° 4 kt METAR LFBA 170300Z AUTO 31004KT 280V010 9999 //////TCU 17/15 Q1012 TEMPO BKN030
04:30
V
16 °C 10 km+ - 300° 300° 4 kt METAR LFBA 170230Z AUTO 30004KT CAVOK 16/14 Q1012
04:00
V
17 °C 10 km+ - 310° 310° 3 kt METAR LFBA 170200Z AUTO 31003KT CAVOK 17/15 Q1012
03:30
V
18 °C 10 km+ - 300° 300° 4 kt METAR LFBA 170130Z AUTO 30004KT 9999 //////TCU 18/14 Q1012
03:00
V
18 °C 10 km+ - Var Var 2 kt METAR LFBA 170100Z AUTO VRB02KT 9999 //////TCU 18/14 Q1012
02:30
V
18 °C 10 km+ - 310° 310° 5 kt METAR LFBA 170030Z AUTO 31005KT CAVOK 18/15 Q1013
02:00
V
18 °C 10 km+ - 310° 310° 3 kt METAR LFBA 170000Z AUTO 31003KT CAVOK 18/15 Q1013
01:30
V
18 °C 10 km+ - Var Var 2 kt METAR LFBA 162330Z AUTO VRB02KT CAVOK 18/15 Q1013
01:00
V
19 °C 10 km+ - 300° 300° 3 kt METAR LFBA 162300Z AUTO 30003KT CAVOK 19/15 Q1013
00:30
V
19 °C 10 km+ - Var Var 2 kt METAR LFBA 162230Z AUTO VRB02KT CAVOK 19/15 Q1013
00:00
V
19 °C 10 km+ - 300° 300° 5 kt METAR LFBA 162200Z AUTO 30005KT CAVOK 19/15 Q1013

June 16, 2024

Time Code Weather Temp. Visibility Ceiling Wind METAR/SPECI
23:30
V
19 °C 10 km+ - 300° 300° 3 kt METAR LFBA 162130Z AUTO 30003KT CAVOK 19/15 Q1013
23:00
U
20 °C 0 m - 310° 310° 2 kt METAR LFBA 162100Z AUTO 31002KT //// R29///// // NSC 20/15 Q1013
22:30
V
20 °C 10 km+ - 310° 310° 3 kt METAR LFBA 162030Z AUTO 31003KT CAVOK 20/15 Q1013
22:00
I
21 °C 4.2 km - 350° 350° 3 kt METAR LFBA 162000Z AUTO 35003KT 4200 HZ NSC 21/15 Q1013 BECMG 9999 NSW
21:30
V
21 °C 10 km+ - 320° 320° 4 kt METAR LFBA 161930Z AUTO 32004KT CAVOK 21/15 Q1013 NOSIG
21:00
V
21 °C 10 km+ - 330° 330° 5 kt METAR LFBA 161900Z AUTO 33005KT CAVOK 21/15 Q1012 NOSIG
20:30
V
22 °C 10 km+ - 330° 330° 7 kt METAR LFBA 161830Z AUTO 33007KT CAVOK 22/15 Q1012 NOSIG
20:00
V
22 °C 10 km+ - 330° 330° 6 kt METAR LFBA 161800Z AUTO 33006KT CAVOK 22/15 Q1012 NOSIG
19:30
V
23 °C 10 km+ - 330° 330° 5 kt METAR LFBA 161730Z AUTO 33005KT 310V010 CAVOK 23/15 Q1012 NOSIG
19:00
V
23 °C 10 km+ - 330° 330° 6 kt METAR LFBA 161700Z AUTO 33006KT 300V360 CAVOK 23/15 Q1012 NOSIG
18:30
V
24 °C 10 km+ 5,200 ft 340° 340° 8 kt METAR LFBA 161630Z AUTO 34008KT 9999 FEW038 BKN052 BKN190 24/15 Q1012 NOSIG
18:00
V
24 °C 10 km+ - 320° 320° 7 kt METAR LFBA 161600Z AUTO 32007KT 280V350 CAVOK 24/16 Q1012 NOSIG
17:30
V
24 °C 10 km+ - 340° 340° 8 kt METAR LFBA 161530Z AUTO 34008KT 310V020 CAVOK 24/16 Q1012 NOSIG
17:00
V
24 °C 10 km+ 6,200 ft 320° 320° 9 kt METAR LFBA 161500Z AUTO 32009KT 9999 SCT047 BKN062 BKN200 24/15 Q1012 TEMPO 26010KT
16:30
V
25 °C 10 km+ 4,500 ft Var Var 4 kt METAR LFBA 161430Z AUTO VRB04KT 9999 BKN045 BKN060 BKN200 25/15 Q1012 NOSIG
16:00
V
25 °C 10 km+ 6,200 ft 320° 320° 4 kt METAR LFBA 161400Z AUTO 32004KT 260V010 9999 FEW045 BKN062 25/14 Q1012 NOSIG
15:30
V
25 °C 10 km+ - Var Var 3 kt METAR LFBA 161330Z AUTO VRB03KT 9999 FEW044 25/13 Q1012 NOSIG
15:00
V
25 °C 10 km+ - 300° 300° 5 kt METAR LFBA 161300Z AUTO 30005KT 220V020 9999 SCT047 SCT060 25/14 Q1012 NOSIG
14:30
V
25 °C 10 km+ 4,700 ft Var Var 3 kt METAR LFBA 161230Z AUTO VRB03KT 9999 BKN047 BKN054 25/14 Q1012 NOSIG
14:00
V
25 °C 10 km+ 4,700 ft Var Var 4 kt METAR LFBA 161200Z AUTO VRB04KT 9999 BKN047 25/13 Q1012 NOSIG
13:30
V
24 °C 10 km+ - 220° 220° 5 kt METAR LFBA 161130Z AUTO 22005KT 140V300 9999 FEW047 24/13 Q1012 NOSIG
13:00
V
24 °C 10 km+ 21,000 ft 270° 270° 5 kt METAR LFBA 161100Z AUTO 27005KT 190V340 9999 FEW041 BKN210 24/14 Q1013 NOSIG
12:30
V
23 °C 10 km+ - 220° 220° 4 kt METAR LFBA 161030Z AUTO 22004KT 170V280 9999 SCT040 SCT210 23/13 Q1013 NOSIG
12:00
V
22 °C 10 km+ 4,200 ft 270° 270° 6 - 17 kt METAR LFBA 161000Z AUTO 27006G17KT 210V350 9999 BKN042 BKN049 22/12 Q1013 NOSIG
11:30
V
22 °C 10 km+ 3,700 ft 280° 280° 6 kt METAR LFBA 160930Z AUTO 28006KT 210V350 9999 BKN037 BKN044 22/13 Q1013 NOSIG
11:00
V
22 °C 10 km+ 4,000 ft 250° 250° 4 kt METAR LFBA 160900Z AUTO 25004KT 200V300 9999 BKN040 22/12 Q1013 NOSIG
10:30
V
21 °C 10 km+ 4,100 ft 090° 090° 5 kt METAR LFBA 160830Z AUTO 09005KT 060V120 9999 BKN041 21/14 Q1013 BECMG 25010KT
10:00
V
19 °C 10 km+ 3,900 ft 080° 080° 4 kt METAR LFBA 160800Z AUTO 08004KT 050V110 9999 BKN039 19/13 Q1014 BECMG 25010KT
09:30
V
19 °C 10 km+ - 090° 090° 4 kt METAR LFBA 160730Z AUTO 09004KT 050V120 9999 SCT043 19/12 Q1014 BECMG 25010KT
09:00
V
17 °C 10 km+ 4,100 ft Var Var 3 kt METAR LFBA 160700Z AUTO VRB03KT 9999 OVC041 17/12 Q1014 NOSIG
08:30
V
16 °C 10 km+ 3,900 ft 130° 130° 3 kt METAR LFBA 160630Z AUTO 13003KT 070V220 9999 OVC039 16/11 Q1013 NOSIG
08:00
V
15 °C 10 km+ 4,200 ft 100° 100° 3 kt METAR LFBA 160600Z AUTO 10003KT 070V180 9999 OVC042 15/13 Q1013 BECMG 25010KT
Report a change